Time;durP1;ratioP1;P1;durP2;ratioP2;P2;SDS_P1;SDS_P2;PMS_P1;PMS_P2;Temp;Humidity;BMP_temperature;BMP_pressure;BME280_temperature;BME280_humidity;BME280_pressure;Samples;Min_cycle;Max_cycle;Signal;HPM_P1;HPM_P2
2023/04/18 00:01:27;;;;;;;11.02;5.47;;;;;;;;;;4938107;28;20055;-70
2023/04/18 00:03:56;;;;;;;11.93;5.85;;;;;;;;;;4941242;28;20109;-72
2023/04/18 00:06:24;;;;;;;12.70;5.68;;;;;;;;;;4938420;28;20146;-72
2023/04/18 00:08:51;;;;;;;13.52;6.22;;;;;;;;;;4931875;28;20063;-71
2023/04/18 00:11:18;;;;;;;13.13;5.82;;;;;;;;;;4939145;28;20069;-72
2023/04/18 00:13:47;;;;;;;15.50;5.53;;;;;;;;;;4935815;28;20066;-70
2023/04/18 00:16:14;;;;;;;12.13;6.10;;;;;;;;;;4936533;28;20105;-72
2023/04/18 00:18:41;;;;;;;13.20;6.50;;;;;;;;;;4938138;28;20059;-72
2023/04/18 00:21:08;;;;;;;12.40;6.05;;;;;;;;;;4957507;28;20218;-71
2023/04/18 00:23:35;;;;;;;11.85;5.88;;;;;;;;;;4943175;28;20063;-72
2023/04/18 00:26:01;;;;;;;14.63;5.38;;;;;;;;;;4934286;28;20050;-71
2023/04/18 00:28:28;;;;;;;12.05;5.90;;;;;;;;;;4946711;28;20059;-71
2023/04/18 00:30:56;;;;;;;14.77;6.28;;;;;;;;;;4932059;28;20078;-71
2023/04/18 00:33:23;;;;;;;13.45;5.55;;;;;;;;;;4937223;28;20156;-70
2023/04/18 00:35:50;;;;;;;14.68;5.78;;;;;;;;;;4937003;28;20059;-72
2023/04/18 00:38:16;;;;;;;10.77;5.35;;;;;;;;;;4933923;28;20059;-71
2023/04/18 00:40:43;;;;;;;12.55;5.88;;;;;;;;;;4932707;28;20055;-71
2023/04/18 00:43:12;;;;;;;12.77;5.78;;;;;;;;;;4968927;28;20051;-71
2023/04/18 00:45:39;;;;;;;14.95;6.20;;;;;;;;;;4938097;28;20059;-71
2023/04/18 00:48:07;;;;;;;11.52;5.32;;;;;;;;;;4945530;28;20055;-71
2023/04/18 00:50:34;;;;;;;10.68;5.38;;;;;;;;;;4934319;28;20090;-72
2023/04/18 00:53:01;;;;;;;12.55;5.53;;;;;;;;;;4935233;28;20066;-71
2023/04/18 00:55:28;;;;;;;11.40;5.63;;;;;;;;;;4933739;28;20061;-71
2023/04/18 00:57:55;;;;;;;12.60;6.05;;;;;;;;;;4957063;28;20046;-70
2023/04/18 01:00:22;;;;;;;12.15;5.40;;;;;;;;;;4954375;28;20068;-71
2023/04/18 01:02:51;;;;;;;12.40;5.85;;;;;;;;;;4949756;28;20058;-71
2023/04/18 01:05:20;;;;;;;11.20;5.43;;;;;;;;;;4960549;28;20050;-71
2023/04/18 01:07:47;;;;;;;16.92;5.95;;;;;;;;;;4970989;28;20078;-72
2023/04/18 01:10:13;;;;;;;11.88;5.40;;;;;;;;;;4954250;28;20047;-72
2023/04/18 01:12:40;;;;;;;13.20;5.00;;;;;;;;;;4953005;28;20054;-71
2023/04/18 01:15:08;;;;;;;12.80;5.47;;;;;;;;;;4954013;28;20058;-72
2023/04/18 01:17:35;;;;;;;8.85;4.90;;;;;;;;;;4958463;28;20145;-71
2023/04/18 01:20:04;;;;;;;11.02;5.05;;;;;;;;;;4965975;28;20074;-71
2023/04/18 01:22:32;;;;;;;11.15;5.45;;;;;;;;;;4975682;28;20074;-70
2023/04/18 01:25:00;;;;;;;15.52;5.32;;;;;;;;;;4962924;28;20133;-71
2023/04/18 01:27:27;;;;;;;12.57;5.57;;;;;;;;;;4959955;28;20055;-71
2023/04/18 01:29:54;;;;;;;12.90;4.95;;;;;;;;;;4954212;28;20059;-72
2023/04/18 01:32:20;;;;;;;11.10;5.20;;;;;;;;;;4957400;28;20055;-71
2023/04/18 01:34:47;;;;;;;11.38;5.35;;;;;;;;;;4949712;28;20073;-70
2023/04/18 01:37:13;;;;;;;11.00;5.47;;;;;;;;;;4950590;28;20055;-70
2023/04/18 01:39:40;;;;;;;10.95;4.95;;;;;;;;;;4957165;28;20059;-72
2023/04/18 01:42:08;;;;;;;10.80;5.35;;;;;;;;;;4953825;28;20062;-71
2023/04/18 01:44:34;;;;;;;13.18;5.70;;;;;;;;;;4956034;28;20051;-72
2023/04/18 01:47:01;;;;;;;11.38;4.97;;;;;;;;;;4947750;28;20067;-71
2023/04/18 01:49:28;;;;;;;11.80;5.20;;;;;;;;;;4957222;28;20138;-71
2023/04/18 01:51:54;;;;;;;11.63;5.53;;;;;;;;;;4954111;28;20054;-71
2023/04/18 01:54:21;;;;;;;11.55;5.57;;;;;;;;;;4956515;28;20062;-72
2023/04/18 01:56:47;;;;;;;10.60;5.50;;;;;;;;;;4943057;28;20057;-72
2023/04/18 01:59:15;;;;;;;11.98;5.22;;;;;;;;;;4957365;28;20051;-70
2023/04/18 02:01:42;;;;;;;11.80;5.18;;;;;;;;;;4952076;28;20054;-71
2023/04/18 02:04:09;;;;;;;10.48;5.13;;;;;;;;;;4932506;28;20055;-72
2023/04/18 02:06:35;;;;;;;11.02;5.25;;;;;;;;;;4944899;28;20105;-70
2023/04/18 02:09:03;;;;;;;12.68;5.22;;;;;;;;;;4953717;28;20074;-71
2023/04/18 02:11:29;;;;;;;12.07;5.05;;;;;;;;;;4946428;28;20063;-72
2023/04/18 02:13:58;;;;;;;10.25;4.85;;;;;;;;;;4939157;28;20070;-71
2023/04/18 02:16:26;;;;;;;14.07;5.82;;;;;;;;;;4926074;28;20062;-70
2023/04/18 02:18:53;;;;;;;10.88;4.97;;;;;;;;;;4943603;28;20077;-72
2023/04/18 02:21:20;;;;;;;12.00;5.07;;;;;;;;;;4941179;28;20070;-70
2023/04/18 02:23:47;;;;;;;10.98;5.47;;;;;;;;;;4948431;28;20057;-72
2023/04/18 02:26:13;;;;;;;10.35;5.47;;;;;;;;;;4955086;28;20100;-70
2023/04/18 02:28:40;;;;;;;8.45;4.50;;;;;;;;;;4957855;28;20062;-71
2023/04/18 02:31:13;;;;;;;11.38;5.40;;;;;;;;;;4953582;28;20054;-70
2023/04/18 02:33:41;;;;;;;13.80;4.78;;;;;;;;;;4953698;28;20058;-71
2023/04/18 02:36:08;;;;;;;9.57;4.65;;;;;;;;;;4940446;28;20059;-71
2023/04/18 02:38:34;;;;;;;12.07;5.35;;;;;;;;;;4932880;28;20058;-71
2023/04/18 02:41:01;;;;;;;11.57;4.82;;;;;;;;;;4937107;28;20217;-71
2023/04/18 02:43:28;;;;;;;9.20;4.70;;;;;;;;;;4965436;28;20138;-70
2023/04/18 02:45:55;;;;;;;11.07;5.20;;;;;;;;;;4970705;28;20059;-71
2023/04/18 02:48:23;;;;;;;12.48;5.05;;;;;;;;;;4934344;28;20110;-70
2023/04/18 02:50:51;;;;;;;10.00;4.82;;;;;;;;;;4968527;28;20054;-72
2023/04/18 02:53:18;;;;;;;10.32;5.20;;;;;;;;;;4927108;28;20055;-71
2023/04/18 02:55:44;;;;;;;10.10;5.05;;;;;;;;;;4952560;28;20059;-71
2023/04/18 02:58:11;;;;;;;11.63;5.07;;;;;;;;;;4941756;28;20058;-71
2023/04/18 03:00:38;;;;;;;10.35;5.28;;;;;;;;;;4934645;28;20134;-72
2023/04/18 03:03:05;;;;;;;11.60;5.07;;;;;;;;;;4966951;28;20073;-71
2023/04/18 03:05:33;;;;;;;10.70;4.80;;;;;;;;;;4935107;28;20094;-71
2023/04/18 03:08:02;;;;;;;12.15;5.30;;;;;;;;;;4940219;28;20080;-72
2023/04/18 03:10:28;;;;;;;11.40;5.68;;;;;;;;;;4932681;28;20052;-70
2023/04/18 03:12:55;;;;;;;13.68;5.40;;;;;;;;;;4926298;28;20091;-72
2023/04/18 03:15:21;;;;;;;11.23;5.22;;;;;;;;;;4908832;28;20196;-71
2023/04/18 03:17:48;;;;;;;11.13;4.85;;;;;;;;;;4929233;28;20070;-72
2023/04/18 03:20:15;;;;;;;12.13;5.18;;;;;;;;;;4933044;28;20063;-72
2023/04/18 03:22:42;;;;;;;10.02;5.00;;;;;;;;;;4968285;28;20059;-72
2023/04/18 03:25:10;;;;;;;12.10;5.50;;;;;;;;;;4968350;28;20061;-72
2023/04/18 03:27:37;;;;;;;10.10;4.40;;;;;;;;;;4936958;28;20055;-71
2023/04/18 03:30:04;;;;;;;12.85;5.35;;;;;;;;;;4931678;28;20047;-70
2023/04/18 03:32:32;;;;;;;10.68;4.75;;;;;;;;;;4968250;28;20063;-72
2023/04/18 03:34:59;;;;;;;10.68;5.05;;;;;;;;;;4966896;28;20077;-71
2023/04/18 03:37:25;;;;;;;11.82;5.13;;;;;;;;;;4965674;28;20123;-72
2023/04/18 03:39:52;;;;;;;10.30;4.65;;;;;;;;;;4936439;28;20066;-72
2023/04/18 03:42:20;;;;;;;10.23;5.05;;;;;;;;;;4972336;28;20059;-71
2023/04/18 03:44:47;;;;;;;10.15;4.82;;;;;;;;;;4941702;28;20062;-71
2023/04/18 03:47:15;;;;;;;11.50;5.05;;;;;;;;;;4929722;28;20066;-71
2023/04/18 03:49:42;;;;;;;9.68;4.88;;;;;;;;;;4975683;28;20059;-71
2023/04/18 03:52:08;;;;;;;10.73;4.88;;;;;;;;;;4940960;28;20059;-73
2023/04/18 03:54:35;;;;;;;11.38;5.03;;;;;;;;;;4965232;28;20059;-74
2023/04/18 03:57:02;;;;;;;11.30;5.07;;;;;;;;;;4951869;28;20051;-74
2023/04/18 03:59:31;;;;;;;10.43;5.38;;;;;;;;;;4959514;28;20082;-71
2023/04/18 04:01:57;;;;;;;11.55;5.15;;;;;;;;;;4937113;28;20066;-71
2023/04/18 04:04:24;;;;;;;12.00;5.30;;;;;;;;;;4968566;28;20122;-70
2023/04/18 04:06:51;;;;;;;11.77;4.85;;;;;;;;;;4948584;28;20071;-71
2023/04/18 04:09:18;;;;;;;9.48;4.68;;;;;;;;;;4934098;28;20059;-72
2023/04/18 04:11:45;;;;;;;10.25;4.80;;;;;;;;;;4927287;28;20059;-71
2023/04/18 04:14:12;;;;;;;10.80;5.05;;;;;;;;;;4917747;28;20060;-71
2023/04/18 04:16:40;;;;;;;10.43;4.80;;;;;;;;;;4936814;28;20055;-72
2023/04/18 04:19:09;;;;;;;11.93;4.93;;;;;;;;;;4942216;28;20054;-71
2023/04/18 04:21:36;;;;;;;10.38;5.00;;;;;;;;;;4952481;28;20061;-71
2023/04/18 04:24:06;;;;;;;10.70;4.85;;;;;;;;;;4968919;28;20070;-72
2023/04/18 04:26:33;;;;;;;15.57;5.72;;;;;;;;;;4951224;28;20063;-72
2023/04/18 04:28:59;;;;;;;13.70;5.28;;;;;;;;;;4953929;28;20062;-70
2023/04/18 04:31:28;;;;;;;11.65;5.00;;;;;;;;;;4952500;28;20046;-72
2023/04/18 04:33:55;;;;;;;;;;;;;;;;;;4947972;28;20054;-72
2023/04/18 04:36:26;;;;;;;9.88;4.65;;;;;;;;;;4953307;28;19926;-72
2023/04/18 04:38:54;;;;;;;13.45;5.13;;;;;;;;;;4955708;28;20054;-71
2023/04/18 04:45:02;;;;;;;;;;;;;;;;;;;;;
2023/04/18 04:51:11;;;;;;;10.13;4.75;;;;;;;;;;4910315;28;20059;-73
2023/04/18 04:53:39;;;;;;;14.45;5.18;;;;;;;;;;4931838;28;20101;-72
2023/04/18 04:56:06;;;;;;;10.88;4.90;;;;;;;;;;4956116;28;20051;-70
2023/04/18 04:58:33;;;;;;;9.98;4.90;;;;;;;;;;4986082;28;20061;-71
2023/04/18 05:01:02;;;;;;;10.10;5.00;;;;;;;;;;4965723;28;20059;-71
2023/04/18 05:03:28;;;;;;;12.90;5.47;;;;;;;;;;4984240;28;20464;-72
2023/04/18 05:05:55;;;;;;;11.80;5.05;;;;;;;;;;4971773;28;20047;-70
2023/04/18 05:08:23;;;;;;;13.85;6.25;;;;;;;;;;4957678;28;20063;-71
2023/04/18 05:10:51;;;;;;;12.50;5.68;;;;;;;;;;4958973;28;20068;-71
2023/04/18 05:13:24;;;;;;;11.35;5.05;;;;;;;;;;4952857;28;20066;-72
2023/04/18 05:15:51;;;;;;;11.18;5.05;;;;;;;;;;4957473;28;20053;-72
2023/04/18 05:18:20;;;;;;;12.80;5.28;;;;;;;;;;4948379;28;20201;-70
2023/04/18 05:20:47;;;;;;;10.05;5.50;;;;;;;;;;4989671;28;20054;-70
2023/04/18 05:23:17;;;;;;;11.38;5.15;;;;;;;;;;4960416;28;20069;-73
2023/04/18 05:25:44;;;;;;;11.65;5.57;;;;;;;;;;4930767;28;20062;-72
2023/04/18 05:28:15;;;;;;;11.57;5.13;;;;;;;;;;4958756;28;20066;-71
2023/04/18 05:30:43;;;;;;;11.38;5.72;;;;;;;;;;4986065;28;20062;-71
2023/04/18 05:33:10;;;;;;;12.85;5.40;;;;;;;;;;4947417;28;20069;-70
2023/04/18 05:35:37;;;;;;;13.00;5.60;;;;;;;;;;4944728;28;20054;-71
2023/04/18 05:38:11;;;;;;;15.10;5.15;;;;;;;;;;4935166;28;20142;-72
2023/04/18 05:40:37;;;;;;;10.48;5.03;;;;;;;;;;4935224;28;20047;-72
2023/04/18 05:43:24;;;;;;;11.30;5.75;;;;;;;;;;4961007;28;20051;-70
2023/04/18 05:45:55;;;;;;;12.50;5.63;;;;;;;;;;4937457;28;20068;-71
2023/04/18 05:48:23;;;;;;;12.93;5.95;;;;;;;;;;4932697;28;20055;-71
2023/04/18 05:50:53;;;;;;;11.23;5.10;;;;;;;;;;4934336;28;20063;-72
2023/04/18 05:53:19;;;;;;;11.88;5.55;;;;;;;;;;4928509;28;20303;-71
2023/04/18 05:55:49;;;;;;;11.10;5.30;;;;;;;;;;4942425;28;20051;-70
2023/04/18 05:58:15;;;;;;;11.07;5.22;;;;;;;;;;4962276;28;20070;-72
2023/04/18 06:00:44;;;;;;;11.93;5.60;;;;;;;;;;4960817;28;20123;-69
2023/04/18 06:03:13;;;;;;;14.13;5.80;;;;;;;;;;4955492;28;20065;-71
2023/04/18 06:05:41;;;;;;;10.43;5.47;;;;;;;;;;4970981;28;20086;-70
2023/04/18 06:08:08;;;;;;;13.40;6.07;;;;;;;;;;4957915;28;20078;-73
2023/04/18 06:10:35;;;;;;;10.45;5.32;;;;;;;;;;4982223;28;20058;-72
2023/04/18 06:13:11;;;;;;;11.60;5.78;;;;;;;;;;4972469;28;20050;-73
2023/04/18 06:15:38;;;;;;;12.98;5.53;;;;;;;;;;4932401;28;20070;-74
2023/04/18 06:18:05;;;;;;;11.55;5.50;;;;;;;;;;4951510;28;20165;-69
2023/04/18 06:20:33;;;;;;;12.43;5.60;;;;;;;;;;4956685;28;20137;-71
2023/04/18 06:23:00;;;;;;;11.65;5.18;;;;;;;;;;4954227;28;20141;-70
2023/04/18 06:25:27;;;;;;;13.48;5.68;;;;;;;;;;4944956;28;20055;-71
2023/04/18 06:27:53;;;;;;;11.27;5.20;;;;;;;;;;4991533;28;20069;-70
2023/04/18 06:30:22;;;;;;;15.85;5.50;;;;;;;;;;4957298;28;20085;-74
2023/04/18 06:32:54;;;;;;;14.18;5.72;;;;;;;;;;4946741;28;20134;-74
2023/04/18 06:35:21;;;;;;;12.65;5.80;;;;;;;;;;4948504;28;20073;-73
2023/04/18 06:37:50;;;;;;;11.30;5.50;;;;;;;;;;4960620;28;20067;-73
2023/04/18 06:40:18;;;;;;;12.13;5.05;;;;;;;;;;4956779;28;20075;-76
2023/04/18 06:42:45;;;;;;;;;;;;;;;;;;4935447;28;20097;-75
2023/04/18 06:45:13;;;;;;;10.25;4.70;;;;;;;;;;4925902;28;19925;-77
2023/04/18 06:47:44;;;;;;;10.77;4.97;;;;;;;;;;4938193;28;20138;-72
2023/04/18 06:50:11;;;;;;;11.00;5.20;;;;;;;;;;4957210;28;20309;-73
2023/04/18 06:52:43;;;;;;;10.93;4.90;;;;;;;;;;4955001;28;20063;-72
2023/04/18 06:55:17;;;;;;;13.13;5.78;;;;;;;;;;4951971;28;20069;-72
2023/04/18 06:57:44;;;;;;;10.73;5.05;;;;;;;;;;4959536;28;20066;-72
2023/04/18 07:00:11;;;;;;;10.50;5.10;;;;;;;;;;4950483;28;20047;-75
2023/04/18 07:02:38;;;;;;;11.45;5.43;;;;;;;;;;4949438;28;20065;-72
2023/04/18 07:05:12;;;;;;;12.77;5.75;;;;;;;;;;4950855;28;20081;-73
2023/04/18 07:07:41;;;;;;;10.68;5.00;;;;;;;;;;4978182;28;20054;-72
2023/04/18 07:10:10;;;;;;;11.55;5.18;;;;;;;;;;4963321;28;20059;-73
2023/04/18 07:12:38;;;;;;;10.02;4.75;;;;;;;;;;4963036;28;20070;-72
2023/04/18 07:15:11;;;;;;;11.60;4.45;;;;;;;;;;4962267;28;20148;-71
2023/04/18 07:17:40;;;;;;;13.02;5.03;;;;;;;;;;4931963;28;20055;-73
2023/04/18 07:20:09;;;;;;;10.80;4.93;;;;;;;;;;4934841;28;20078;-72
2023/04/18 07:22:36;;;;;;;10.25;4.50;;;;;;;;;;4976415;28;20102;-73
2023/04/18 07:25:08;;;;;;;11.80;4.57;;;;;;;;;;4934598;28;20067;-73
2023/04/18 07:27:37;;;;;;;11.13;4.68;;;;;;;;;;4956785;28;20077;-73
2023/04/18 07:30:12;;;;;;;10.75;5.30;;;;;;;;;;4969265;28;20082;-72
2023/04/18 07:32:39;;;;;;;10.65;4.75;;;;;;;;;;4951293;28;20067;-72
2023/04/18 07:35:07;;;;;;;9.93;4.70;;;;;;;;;;4930179;28;20057;-73
2023/04/18 07:37:34;;;;;;;9.98;4.28;;;;;;;;;;4948265;28;20145;-73
2023/04/18 07:40:01;;;;;;;8.25;4.13;;;;;;;;;;4968868;28;20058;-72
2023/04/18 07:42:28;;;;;;;11.35;4.82;;;;;;;;;;4972247;28;20083;-73
2023/04/18 07:44:56;;;;;;;11.27;4.57;;;;;;;;;;4948897;28;20050;-72
2023/04/18 07:47:25;;;;;;;12.20;4.93;;;;;;;;;;4948575;28;20364;-73
2023/04/18 07:49:51;;;;;;;10.48;4.38;;;;;;;;;;4968092;28;20059;-72
2023/04/18 07:52:18;;;;;;;11.75;4.53;;;;;;;;;;4933488;28;20059;-72
2023/04/18 07:54:45;;;;;;;10.73;4.68;;;;;;;;;;4924176;28;20122;-74
2023/04/18 07:57:12;;;;;;;11.73;5.43;;;;;;;;;;4952755;28;20054;-73
2023/04/18 07:59:41;;;;;;;11.23;5.00;;;;;;;;;;4945789;28;20190;-72
2023/04/18 08:02:07;;;;;;;10.30;4.50;;;;;;;;;;4968307;28;20070;-73
2023/04/18 08:04:36;;;;;;;10.48;4.82;;;;;;;;;;4932468;28;20389;-73
2023/04/18 08:07:04;;;;;;;10.48;5.00;;;;;;;;;;4965942;28;20047;-74
2023/04/18 08:09:34;;;;;;;9.05;4.25;;;;;;;;;;4957397;28;20062;-73
2023/04/18 08:12:01;;;;;;;11.48;4.80;;;;;;;;;;4944689;28;20081;-73
2023/04/18 08:14:27;;;;;;;9.00;3.95;;;;;;;;;;4941096;28;20059;-71
2023/04/18 08:16:56;;;;;;;11.55;4.45;;;;;;;;;;4946108;28;20137;-73
2023/04/18 08:19:26;;;;;;;9.13;4.45;;;;;;;;;;4953643;28;20054;-73
2023/04/18 08:22:06;;;;;;;9.45;4.20;;;;;;;;;;4948684;28;20050;-73
2023/04/18 08:24:33;;;;;;;9.40;4.22;;;;;;;;;;4952546;28;20058;-72
2023/04/18 08:27:00;;;;;;;9.70;4.45;;;;;;;;;;4943974;28;20137;-73
2023/04/18 08:29:32;;;;;;;9.85;4.10;;;;;;;;;;4955685;28;20062;-73
2023/04/18 08:31:59;;;;;;;9.13;4.00;;;;;;;;;;4959506;28;20056;-72
2023/04/18 08:34:27;;;;;;;10.63;4.70;;;;;;;;;;4955450;28;20074;-72
2023/04/18 08:36:56;;;;;;;7.95;3.67;;;;;;;;;;4955599;28;20117;-72
2023/04/18 08:39:23;;;;;;;8.77;4.22;;;;;;;;;;4988710;28;20134;-72
2023/04/18 08:41:53;;;;;;;10.38;4.25;;;;;;;;;;4956617;28;20047;-73
2023/04/18 08:44:20;;;;;;;8.23;3.80;;;;;;;;;;4953293;28;20150;-73
2023/04/18 08:46:47;;;;;;;11.27;4.40;;;;;;;;;;4956839;28;20082;-72
2023/04/18 08:49:21;;;;;;;10.45;4.18;;;;;;;;;;4941705;28;20070;-73
2023/04/18 08:51:50;;;;;;;9.40;4.30;;;;;;;;;;4930578;28;20090;-73
2023/04/18 08:54:19;;;;;;;9.25;4.47;;;;;;;;;;4964320;28;20047;-73
2023/04/18 08:56:46;;;;;;;9.85;3.78;;;;;;;;;;4955928;28;20102;-73
2023/04/18 08:59:17;;;;;;;10.75;3.80;;;;;;;;;;4950125;28;20142;-73
2023/04/18 09:01:49;;;;;;;8.93;4.20;;;;;;;;;;4960925;28;20047;-73
2023/04/18 09:04:31;;;;;;;10.35;4.38;;;;;;;;;;4984187;28;20062;-73
2023/04/18 09:06:58;;;;;;;8.07;3.72;;;;;;;;;;4944023;28;20042;-73
2023/04/18 09:09:27;;;;;;;7.93;3.58;;;;;;;;;;4946727;28;20046;-73
2023/04/18 09:12:06;;;;;;;11.90;4.10;;;;;;;;;;4952540;28;20051;-73
2023/04/18 09:14:35;;;;;;;10.18;3.90;;;;;;;;;;4944354;28;20058;-72
2023/04/18 09:17:07;;;;;;;10.23;3.95;;;;;;;;;;4963615;28;20149;-72
2023/04/18 09:19:37;;;;;;;9.05;4.18;;;;;;;;;;4982832;28;20153;-73
2023/04/18 09:22:04;;;;;;;8.90;4.10;;;;;;;;;;4983762;28;20063;-73
2023/04/18 09:24:36;;;;;;;8.93;3.90;;;;;;;;;;4930143;28;20055;-72
2023/04/18 09:27:13;;;;;;;11.13;4.35;;;;;;;;;;4926063;28;20056;-73
2023/04/18 09:29:45;;;;;;;8.40;3.53;;;;;;;;;;4949058;28;20150;-72
2023/04/18 09:32:11;;;;;;;8.38;3.22;;;;;;;;;;4970035;28;20063;-73
2023/04/18 09:34:41;;;;;;;7.53;3.67;;;;;;;;;;4933191;28;20118;-73
2023/04/18 09:37:12;;;;;;;7.85;3.92;;;;;;;;;;4953725;28;20055;-73
2023/04/18 09:39:41;;;;;;;8.15;3.72;;;;;;;;;;4963676;28;20157;-73
2023/04/18 09:42:09;;;;;;;7.82;3.70;;;;;;;;;;4966970;28;20054;-73
2023/04/18 09:44:36;;;;;;;7.80;3.75;;;;;;;;;;4941655;28;20047;-73
2023/04/18 09:47:03;;;;;;;7.40;3.10;;;;;;;;;;4937326;28;20222;-73
2023/04/18 09:49:37;;;;;;;8.85;3.70;;;;;;;;;;4934595;28;20054;-72
2023/04/18 09:52:05;;;;;;;7.55;3.00;;;;;;;;;;4940441;28;20066;-73
2023/04/18 09:54:36;;;;;;;7.80;3.63;;;;;;;;;;4924466;28;20063;-74
2023/04/18 09:57:12;;;;;;;9.27;4.15;;;;;;;;;;4934948;28;20305;-73
2023/04/18 09:59:46;;;;;;;7.97;3.55;;;;;;;;;;4931715;28;20048;-72
2023/04/18 10:02:22;;;;;;;7.30;3.28;;;;;;;;;;4940366;28;20090;-73
2023/04/18 10:04:50;;;;;;;8.07;2.97;;;;;;;;;;4933038;28;20055;-73
2023/04/18 10:07:46;;;;;;;8.23;3.38;;;;;;;;;;4940199;28;20069;-75
2023/04/18 10:10:15;;;;;;;6.35;2.90;;;;;;;;;;4914885;28;20152;-73
2023/04/18 10:12:46;;;;;;;7.35;2.88;;;;;;;;;;4946120;28;20055;-73
2023/04/18 10:15:14;;;;;;;7.20;3.40;;;;;;;;;;4911048;28;20152;-73
2023/04/18 10:17:42;;;;;;;7.28;2.83;;;;;;;;;;4942996;28;20059;-74
2023/04/18 10:20:16;;;;;;;5.78;2.67;;;;;;;;;;4949816;28;20102;-73
2023/04/18 10:22:46;;;;;;;7.03;3.08;;;;;;;;;;4924594;28;20065;-73
2023/04/18 10:25:31;;;;;;;6.20;3.10;;;;;;;;;;4933773;28;20091;-74
2023/04/18 10:28:00;;;;;;;9.15;3.40;;;;;;;;;;4948358;28;20054;-74
2023/04/18 10:30:42;;;;;;;9.10;2.78;;;;;;;;;;4967307;28;20064;-72
2023/04/18 10:33:20;;;;;;;6.72;3.25;;;;;;;;;;4927145;28;20059;-73
2023/04/18 10:35:56;;;;;;;8.45;3.20;;;;;;;;;;4929536;28;20049;-74
2023/04/18 10:38:24;;;;;;;6.57;2.97;;;;;;;;;;4956958;28;20061;-73
2023/04/18 10:40:51;;;;;;;4.95;2.60;;;;;;;;;;4972335;28;20053;-73
2023/04/18 10:43:24;;;;;;;6.43;2.92;;;;;;;;;;4950489;28;20054;-74
2023/04/18 10:46:11;;;;;;;6.20;2.60;;;;;;;;;;4940020;28;20062;-72
2023/04/18 10:48:38;;;;;;;5.47;2.53;;;;;;;;;;4929058;28;20090;-73
2023/04/18 10:51:16;;;;;;;8.85;2.92;;;;;;;;;;4934224;28;20138;-73
2023/04/18 10:53:46;;;;;;;6.15;2.80;;;;;;;;;;4935933;28;20062;-73
2023/04/18 10:56:15;;;;;;;8.93;2.88;;;;;;;;;;4970240;28;20055;-73
2023/04/18 10:58:44;;;;;;;7.43;3.03;;;;;;;;;;4974442;28;20098;-73
2023/04/18 11:01:12;;;;;;;7.25;3.55;;;;;;;;;;4939114;28;20142;-72
2023/04/18 11:03:42;;;;;;;6.95;2.95;;;;;;;;;;4939264;28;20063;-74
2023/04/18 11:06:11;;;;;;;6.60;3.00;;;;;;;;;;4956400;28;20058;-73
2023/04/18 11:08:38;;;;;;;7.30;3.13;;;;;;;;;;4951187;28;20043;-73
2023/04/18 11:11:10;;;;;;;6.88;3.08;;;;;;;;;;4943543;28;20173;-73
2023/04/18 11:13:52;;;;;;;8.10;3.70;;;;;;;;;;4944256;28;20141;-73
2023/04/18 11:16:27;;;;;;;7.30;3.20;;;;;;;;;;4957932;28;20117;-72
2023/04/18 11:19:05;;;;;;;8.00;3.65;;;;;;;;;;4958112;28;20062;-73
2023/04/18 11:21:33;;;;;;;8.10;3.42;;;;;;;;;;4952595;28;20055;-72
2023/04/18 11:24:00;;;;;;;8.07;3.45;;;;;;;;;;4943471;28;20073;-73
2023/04/18 11:26:30;;;;;;;7.07;3.33;;;;;;;;;;4956242;28;20116;-72
2023/04/18 11:28:56;;;;;;;7.68;3.72;;;;;;;;;;4957603;28;20167;-73
2023/04/18 11:31:25;;;;;;;8.68;3.85;;;;;;;;;;4948258;28;20055;-73
2023/04/18 11:33:56;;;;;;;7.22;3.60;;;;;;;;;;4944195;28;20058;-72
2023/04/18 11:36:25;;;;;;;8.35;4.13;;;;;;;;;;4951512;28;20057;-73
2023/04/18 11:38:52;;;;;;;8.23;3.95;;;;;;;;;;4963976;28;20054;-72
2023/04/18 11:41:18;;;;;;;10.15;3.92;;;;;;;;;;4981541;28;20058;-72
2023/04/18 11:43:48;;;;;;;8.77;4.63;;;;;;;;;;4953658;28;20084;-73
2023/04/18 11:46:15;;;;;;;8.85;4.07;;;;;;;;;;4945698;28;20065;-73
2023/04/18 11:48:49;;;;;;;8.43;4.32;;;;;;;;;;4955846;28;20057;-73
2023/04/18 11:54:26;;;;;;;11.80;4.53;;;;;;;;;;5026707;27;20502;-75
2023/04/18 11:57:03;;;;;;;8.73;4.00;;;;;;;;;;4984194;28;20050;-73
2023/04/18 11:59:30;;;;;;;9.27;4.13;;;;;;;;;;4990199;28;20057;-74
2023/04/18 12:02:03;;;;;;;10.25;4.03;;;;;;;;;;5005025;28;20061;-73
2023/04/18 12:04:47;;;;;;;11.02;4.68;;;;;;;;;;5003702;28;20074;-73
2023/04/18 12:07:29;;;;;;;9.98;4.53;;;;;;;;;;4996550;28;20054;-73
2023/04/18 12:09:56;;;;;;;9.88;4.22;;;;;;;;;;5000960;28;20076;-73
2023/04/18 12:12:26;;;;;;;9.45;4.75;;;;;;;;;;4998660;28;20061;-72
2023/04/18 12:15:00;;;;;;;9.40;4.25;;;;;;;;;;5008932;28;20053;-73
2023/04/18 12:17:27;;;;;;;7.97;4.38;;;;;;;;;;4980515;28;20072;-73
2023/04/18 12:19:54;;;;;;;10.65;4.40;;;;;;;;;;5001577;28;20057;-72
2023/04/18 12:22:36;;;;;;;12.93;5.68;;;;;;;;;;5015940;28;20061;-72
2023/04/18 12:25:22;;;;;;;9.57;4.70;;;;;;;;;;5017580;28;20110;-74
2023/04/18 12:27:54;;;;;;;10.73;4.88;;;;;;;;;;5002822;28;20053;-73
2023/04/18 12:30:21;;;;;;;11.13;5.00;;;;;;;;;;4978984;28;20189;-71
2023/04/18 12:32:49;;;;;;;10.70;5.55;;;;;;;;;;4987586;28;20120;-73
2023/04/18 12:35:19;;;;;;;11.13;5.55;;;;;;;;;;4980714;28;20057;-73
2023/04/18 12:37:47;;;;;;;10.10;5.50;;;;;;;;;;4983813;28;20053;-72
2023/04/18 12:40:14;;;;;;;11.10;5.57;;;;;;;;;;5005154;28;20054;-73
2023/04/18 12:42:41;;;;;;;11.68;6.13;;;;;;;;;;4990520;28;20065;-72
2023/04/18 12:45:11;;;;;;;12.90;6.10;;;;;;;;;;4974456;28;20066;-74
2023/04/18 12:47:41;;;;;;;13.25;5.72;;;;;;;;;;4980439;28;20061;-73
2023/04/18 12:50:11;;;;;;;11.00;5.85;;;;;;;;;;4998957;28;20107;-72
2023/04/18 12:52:38;;;;;;;10.70;6.03;;;;;;;;;;4992876;28;20141;-73
2023/04/18 12:55:14;;;;;;;12.40;6.10;;;;;;;;;;4985571;28;20057;-73
2023/04/18 12:57:41;;;;;;;13.80;6.47;;;;;;;;;;4983704;28;20047;-73
2023/04/18 13:00:11;;;;;;;11.32;5.72;;;;;;;;;;4986817;28;20079;-73
2023/04/18 13:02:40;;;;;;;16.38;6.35;;;;;;;;;;4982127;28;20132;-73
2023/04/18 13:05:09;;;;;;;12.75;6.13;;;;;;;;;;4972150;28;20112;-72
2023/04/18 13:07:39;;;;;;;13.88;6.82;;;;;;;;;;4985125;28;20076;-73
2023/04/18 13:10:07;;;;;;;11.55;6.32;;;;;;;;;;4987406;28;20374;-72
2023/04/18 13:12:34;;;;;;;13.20;6.50;;;;;;;;;;4982183;28;20129;-73
2023/04/18 13:15:02;;;;;;;20.15;6.68;;;;;;;;;;4975297;28;20054;-72
2023/04/18 13:17:32;;;;;;;13.45;6.93;;;;;;;;;;4961825;28;20061;-73
2023/04/18 13:20:03;;;;;;;13.23;6.72;;;;;;;;;;4936077;28;20347;-73
2023/04/18 13:22:30;;;;;;;12.02;6.32;;;;;;;;;;4994090;28;20069;-73
2023/04/18 13:24:57;;;;;;;13.30;6.65;;;;;;;;;;4960440;28;20064;-72
2023/04/18 13:27:23;;;;;;;13.18;6.65;;;;;;;;;;4993193;28;20106;-71
2023/04/18 13:29:51;;;;;;;16.10;6.80;;;;;;;;;;4976978;28;20054;-74
2023/04/18 13:32:18;;;;;;;12.80;6.40;;;;;;;;;;4974929;28;20050;-72
2023/04/18 13:34:56;;;;;;;12.93;6.70;;;;;;;;;;4984677;28;20061;-72
2023/04/18 13:37:23;;;;;;;11.95;6.90;;;;;;;;;;4981058;28;20058;-72
2023/04/18 13:39:52;;;;;;;13.63;7.03;;;;;;;;;;4976017;28;20205;-72
2023/04/18 13:42:19;;;;;;;13.07;5.80;;;;;;;;;;4977748;28;20061;-72
2023/04/18 13:44:46;;;;;;;13.25;6.95;;;;;;;;;;4972381;28;20050;-74
2023/04/18 13:47:13;;;;;;;11.55;6.07;;;;;;;;;;4969859;28;20146;-73
2023/04/18 13:49:40;;;;;;;10.93;5.90;;;;;;;;;;4974398;28;20065;-74
2023/04/18 13:52:17;;;;;;;13.73;6.82;;;;;;;;;;4961436;28;20051;-73
2023/04/18 13:54:44;;;;;;;14.40;6.78;;;;;;;;;;4972715;28;20050;-74
2023/04/18 13:57:13;;;;;;;12.43;6.63;;;;;;;;;;4972796;28;20142;-73
2023/04/18 13:59:42;;;;;;;14.05;6.95;;;;;;;;;;4977872;28;20049;-74
2023/04/18 14:02:09;;;;;;;15.23;7.13;;;;;;;;;;4988114;28;20058;-74
2023/04/18 14:04:38;;;;;;;12.40;6.32;;;;;;;;;;4983084;28;20081;-73
2023/04/18 14:07:06;;;;;;;13.43;6.85;;;;;;;;;;4987411;28;20077;-73
2023/04/18 14:09:36;;;;;;;14.10;7.38;;;;;;;;;;4986984;28;20164;-73
2023/04/18 14:12:14;;;;;;;12.65;6.63;;;;;;;;;;4983915;28;20061;-74
2023/04/18 14:14:41;;;;;;;14.88;6.60;;;;;;;;;;4984657;28;20073;-74
2023/04/18 14:17:11;;;;;;;13.60;6.65;;;;;;;;;;4979754;28;20057;-73
2023/04/18 14:19:41;;;;;;;11.95;6.38;;;;;;;;;;4967958;28;20082;-73
2023/04/18 14:22:07;;;;;;;14.18;6.63;;;;;;;;;;4974350;28;20069;-72
2023/04/18 14:24:59;;;;;;;12.15;6.47;;;;;;;;;;4975693;28;20130;-73
2023/04/18 14:27:29;;;;;;;12.63;6.35;;;;;;;;;;4943047;28;20042;-73
2023/04/18 14:29:57;;;;;;;13.98;7.45;;;;;;;;;;4977546;28;20053;-73
2023/04/18 14:32:24;;;;;;;15.43;7.70;;;;;;;;;;4974096;28;20054;-73
2023/04/18 14:34:51;;;;;;;12.88;6.90;;;;;;;;;;4964186;28;20054;-73
2023/04/18 14:37:18;;;;;;;13.88;7.43;;;;;;;;;;4973572;28;20061;-73
2023/04/18 14:39:47;;;;;;;13.35;6.80;;;;;;;;;;4995353;28;20049;-72
2023/04/18 14:42:18;;;;;;;15.85;8.32;;;;;;;;;;4978437;28;20149;-72
2023/04/18 14:44:45;;;;;;;12.32;6.75;;;;;;;;;;4976611;28;20109;-72
2023/04/18 14:47:20;;;;;;;15.20;7.40;;;;;;;;;;4962118;28;20126;-73
2023/04/18 14:49:47;;;;;;;14.40;7.00;;;;;;;;;;4998817;28;20068;-73
2023/04/18 14:52:17;;;;;;;14.30;7.00;;;;;;;;;;4992170;28;20112;-74
2023/04/18 14:54:44;;;;;;;12.52;6.82;;;;;;;;;;4993879;28;20053;-74
2023/04/18 14:57:20;;;;;;;16.88;7.88;;;;;;;;;;4967280;28;20150;-73